Terminal Aerodrome Forecast
Issued by NWS Grand Forks, ND

Home | Current Version | Previous Version | Graphics & Text | Print | Product List | Glossary On
Versions: 1 2 3 4 5 6 7 8 9 10 11 12 13 14
000
FTUS43 KFGF 211700
TAFFAR
TAF
KFAR 211731Z 2118/2218 16013G21KT 3SM BR OVC006
     FM212100 16015KT P6SM OVC007
     FM220200 14010KT 3SM BR OVC005
     FM221000 10010KT 1SM -RASN BR OVC003=

USA.gov is the U.S. government's official web portal to all federal, state and local government web resources and services.